Date,TemperatureHighF,TemperatureAvgF,TemperatureLowF,DewpointHighF,DewpointAvgF,DewpointLowF,HumidityHigh,HumidityAvg,HumidityLow,PressureMaxIn,PressureMinIn,WindSpeedMaxMPH,WindSpeedAvgMPH,GustSpeedMaxMPH,PrecipitationSumIn
2013-1-1,49,45,40,46,38,16,94,80,31,29.55,29.55,14,1,14,0.32
2013-1-2,45,38,35,43,35,32,94,89,82,29.92,29.55,5,1,6,0.04
2013-1-3,37,33,24,33,30,22,93,88,79,32.48,28.66,7,1,8,0.00
2013-1-4,40,27,19,25,21,16,92,78,51,30.12,30.12,6,1,7,0.00
2013-1-5,53,34,18,33,21,15,89,64,25,30.12,27.72,6,1,8,0.01
2013-1-6,52,39,31,36,32,27,91,77,39,29.58,17.16,11,1,11,0.01
2013-1-7,54,35,23,30,26,20,92,72,38,31.06,17.16,7,0,7,0.00
2013-1-8,55,39,23,43,31,19,86,75,57,30.68,30.68,6,1,10,0.00
2013-1-9,59,52,38,52,47,35,93,82,76,31.30,16.35,9,1,9,0.00
2013-1-10,66,52,43,53,47,41,95,83,58,32.29,31.30,12,0,12,0.00
2013-1-11,60,56,52,57,53,49,94,89,77,19.47,19.47,9,1,9,0.15
2013-1-12,71,62,58,59,56,49,93,79,60,28.61,19.47,14,1,14,0.04
2013-1-13,68,62,57,56,52,50,93,71,62,27.28,27.28,9,1,9,0.12
2013-1-14,58,48,44,56,47,43,95,94,93,27.28,27.28,9,0,9,3.37
2013-1-15,57,52,46,56,51,45,96,95,93,27.28,27.28,6,0,6,1.25
2013-1-16,64,52,45,55,48,43,95,89,63,27.28,27.28,7,0,9,0.06
2013-1-17,51,32,23,49,30,21,94,91,82,28.74,27.28,7,1,10,1.10
2013-1-18,44,33,24,31,25,15,100,77,37,28.74,28.74,6,0,9,0.30
2013-1-19,53,41,23,28,22,14,90,50,25,29.53,27.08,10,2,15,0.30
2013-1-20,56,37,23,36,27,21,92,71,32,30.79,29.33,10,1,14,0.00
2013-1-21,50,34,19,30,18,9,89,51,34,31.43,29.33,20,2,20,0.01
2013-1-22,32,24,20,13,9,4,73,52,33,30.09,24.33,8,1,12,0.00
2013-1-23,45,40,22,30,25,8,73,55,46,29.70,27.05,18,2,23,0.00
2013-1-24,34,27,21,19,12,9,69,53,35,29.70,29.70,11,2,12,0.00
2013-1-25,46,37,27,40,34,13,93,87,52,29.94,29.70,17,2,26,0.25
2013-1-26,48,33,22,30,24,20,98,73,40,30.32,29.94,8,0,9,0.25
2013-1-27,53,45,40,35,31,29,72,58,44,0.00,40.00,11,2,21,0.00
2013-1-28,60,50,42,47,43,30,92,78,54,32.08,32.08,13,2,20,0.00
2013-1-29,64,62,42,56,53,39,89,75,60,32.18,32.18,25,4,25,0.25
2013-1-30,64,44,28,57,39,19,93,82,67,31.08,28.43,16,3,23,2.34
2013-1-31,39,34,24,29,20,4,87,56,39,30.73,29.03,28,4,32,2.34
2013-2-1,37,26,22,23,10,6,61,50,43,30.40,30.02,12,2,13,0.00
2013-2-2,38,32,29,30,28,0,91,85,52,0.00,0.00,11,3,16,0.01
2013-2-3,40,34,26,30,25,20,89,71,50,0.00,0.00,25,3,25,0.01
2013-2-4,48,40,20,28,25,17,87,56,43,30.10,30.01,10,2,13,0.00
2013-2-5,54,45,32,38,32,23,80,61,45,30.05,29.91,15,2,15,0.00
2013-2-6,58,41,28,33,29,26,91,67,33,30.22,30.00,9,1,9,0.00
2013-2-7,44,38,31,39,33,27,93,83,54,30.22,30.02,6,0,6,0.34
2013-2-8,49,42,31,45,35,26,95,77,49,30.17,29.92,18,2,18,0.02
2013-2-9,57,41,25,27,22,12,87,53,18,30.33,30.15,8,1,8,0.00
2013-2-10,54,43,32,39,26,18,92,54,24,30.32,30.14,15,2,15,0.64
2013-2-11,56,49,41,50,39,30,92,71,44,30.21,29.95,12,2,12,0.30
2013-2-12,50,41,30,37,30,24,92,68,37,30.13,29.88,8,0,8,0.27
2013-2-13,50,38,30,40,35,27,94,88,63,29.90,29.61,17,1,17,0.20
2013-2-14,51,34,28,31,27,24,92,79,40,30.06,29.90,15,1,15,0.00
2013-2-15,52,37,24,36,28,22,92,75,43,30.12,29.96,16,1,16,0.00
2013-2-16,32,27,20,27,20,6,88,75,51,30.06,29.87,21,2,21,0.00
2013-2-17,36,25,18,14,8,4,65,48,30,30.29,30.05,22,3,22,0.05
2013-2-18,54,35,17,31,21,13,87,60,36,30.39,30.13,15,2,15,0.01
2013-2-19,48,39,30,39,27,11,91,64,39,30.14,29.86,26,3,26,0.17
2013-2-20,45,32,19,17,14,10,79,50,26,30.18,30.06,9,1,9,0.00
2013-2-21,62,39,21,38,23,16,91,59,23,30.24,30.05,12,1,12,0.38
2013-2-22,48,41,36,44,38,33,93,88,81,30.20,30.00,13,1,13,0.48
2013-2-23,56,47,40,50,44,38,95,89,75,30.02,29.78,7,0,7,0.19
2013-2-24,55,37,30,40,32,24,100,86,38,30.06,29.83,10,0,10,0.00
2013-2-25,49,38,27,34,28,24,88,70,47,30.09,29.94,9,1,9,0.00
2013-2-26,52,41,34,45,36,30,92,82,64,29.94,29.47,17,3,17,0.96
2013-2-27,53,40,34,33,30,26,76,66,42,29.76,29.62,20,3,20,0.00
2013-2-28,39,34,30,27,24,22,76,67,56,29.92,29.70,20,3,20,0.01
2013-3-1,34,31,29,28,26,23,84,79,73,29.96,29.90,7,1,7,0.00
2013-3-2,36,30,24,27,24,19,92,80,57,29.99,29.87,12,1,12,0.03
2013-3-3,31,24,18,20,17,14,86,73,56,30.10,29.97,13,2,13,0.00
2013-3-4,54,28,15,32,18,11,86,69,30,30.22,30.07,13,1,13,0.00
2013-3-5,53,44,32,48,37,24,92,78,54,30.08,29.60,9,2,19,0.86
2013-3-6,32,28,24,26,22,16,87,75,60,30.21,29.68,12,3,22,0.01
2013-3-7,44,32,26,32,25,22,87,78,60,30.32,30.21,15,2,15,0.00
2013-3-8,52,36,26,25,20,11,88,60,22,30.37,30.27,13,2,13,0.00
2013-3-9,66,44,23,35,27,19,85,56,28,30.34,30.19,7,1,9,0.00
2013-3-10,68,48,38,36,32,29,76,55,28,30.21,30.04,16,1,16,0.00
2013-3-11,57,52,48,49,45,34,93,78,56,30.07,29.74,28,2,28,0.08
2013-3-12,50,42,32,47,37,28,94,82,52,30.04,29.72,10,2,10,0.90
2013-3-13,44,34,28,28,22,16,89,62,38,30.21,30.02,21,3,21,0.00
2013-3-14,45,29,21,20,16,12,73,58,31,30.33,30.20,13,2,13,0.00
2013-3-15,66,46,26,42,31,18,83,58,32,30.25,29.93,21,2,21,0.00
2013-3-16,71,62,56,47,43,40,62,51,39,29.93,29.66,18,3,18,0.00
2013-3-17,69,60,50,47,44,41,77,56,38,29.87,28.25,19,2,19,0.00
2013-3-18,57,50,44,49,44,40,94,83,67,29.88,29.55,11,1,11,0.68
2013-3-19,56,44,33,43,29,16,94,60,27,30.07,29.43,24,2,24,0.01
2013-3-20,50,37,25,29,20,11,89,55,21,30.10,29.67,20,2,20,0.00
2013-3-21,36,27,17,27,15,10,89,61,42,30.00,29.80,16,3,16,0.06
2013-3-22,45,33,20,32,20,12,78,61,36,30.08,29.82,14,1,14,0.00
2013-3-23,57,44,36,46,37,30,89,78,64,30.04,29.79,12,1,12,0.03
2013-3-24,52,44,40,45,41,35,93,87,76,29.86,29.22,15,1,15,0.87
2013-3-25,41,30,27,35,23,20,84,76,66,29.94,29.47,20,3,20,0.02
2013-3-26,36,29,25,25,22,21,92,75,57,30.25,29.94,14,1,14,0.03
2013-3-27,44,33,24,28,22,16,84,65,46,30.30,28.67,12,2,12,0.00
2013-3-28,51,35,21,26,21,16,89,61,25,30.34,29.02,16,2,16,0.00
2013-3-29,53,36,22,36,27,19,92,73,36,30.36,28.36,13,1,13,0.06
2013-3-30,60,47,38,44,38,36,99,73,42,30.25,29.37,16,1,16,0.12
2013-3-31,59,49,46,50,45,43,94,86,65,29.99,28.57,14,1,14,0.58
2013-4-1,61,51,40,49,40,31,94,68,43,29.97,27.15,22,2,22,0.08
2013-4-2,55,44,31,32,26,22,82,52,31,30.14,28.34,11,2,11,0.00
2013-4-3,59,45,33,30,24,17,66,45,30,30.22,27.00,10,1,10,0.00
2013-4-4,45,37,33,34,31,22,93,81,40,30.19,28.21,11,1,11,0.66
2013-4-5,56,43,36,40,36,32,94,78,43,30.10,28.27,12,1,12,0.00
2013-4-6,68,48,29,40,33,27,93,61,30,30.23,27.47,8,1,12,0.00
2013-4-7,68,56,44,44,39,33,68,53,39,30.14,24.79,17,2,17,0.00
2013-4-8,74,58,49,51,46,42,82,65,41,30.07,21.70,17,2,17,0.00
2013-4-9,79,68,48,55,52,45,90,59,38,29.40,22.39,11,3,18,0.00
2013-4-10,84,66,52,56,52,48,87,64,32,30.58,21.96,15,2,15,0.00
2013-4-11,75,67,61,59,53,50,92,63,44,26.33,21.77,16,2,16,0.00
2013-4-12,68,61,56,56,48,33,93,67,30,29.62,25.23,18,3,20,0.06
2013-4-13,70,53,36,42,37,32,87,58,26,29.96,27.16,10,1,18,0.00
2013-4-14,69,50,35,47,37,32,90,65,33,30.07,26.69,14,1,17,0.01
2013-4-15,72,59,50,57,52,47,93,78,57,29.56,18.98,13,2,13,0.00
2013-4-16,79,66,54,61,54,49,87,68,40,20.25,20.25,11,1,11,0.00
2013-4-17,77,63,55,62,56,52,91,77,54,23.20,17.54,13,1,13,0.00
2013-4-18,69,62,56,57,55,53,90,78,57,25.81,17.54,14,1,14,0.00
2013-4-21,61,46,30,37,32,28,91,62,37,28.90,27.31,11,2,18,0.00
2013-4-22,65,48,32,43,36,30,96,66,38,29.19,16.95,8,1,13,0.17
2013-4-23,73,53,33,48,39,31,92,62,33,29.64,18.34,12,1,12,0.00
2013-4-24,68,60,49,55,49,43,88,69,54,30.07,18.34,17,2,17,0.16
2013-4-25,65,50,40,44,35,28,89,61,27,32.49,20.88,12,2,12,0.00
2013-4-26,68,51,31,42,36,28,91,60,34,31.55,16.40,11,1,11,0.00
2013-4-27,55,50,47,48,45,40,94,83,62,32.48,23.74,9,0,9,0.59
2013-4-28,53,50,48,49,48,46,94,92,84,32.03,23.19,10,1,10,1.34
2013-4-29,73,59,50,54,49,44,95,73,37,29.92,20.03,16,1,16,0.01
2013-4-30,74,57,45,56,50,43,95,80,46,20.35,16.64,11,0,11,0.00
2013-5-1,65,56,45,52,49,43,94,77,56,26.15,20.35,16,2,16,0.00
2013-5-2,64,57,53,54,51,47,91,80,67,26.15,26.15,10,1,10,0.01
2013-5-3,64,54,50,51,48,44,92,81,54,31.62,16.23,19,2,19,0.09
2013-5-4,51,49,46,48,44,36,92,85,68,27.93,16.20,11,2,14,0.29
2013-5-5,52,49,47,49,46,45,94,91,87,20.10,16.20,15,1,15,1.42
2013-5-6,64,53,44,49,43,34,95,72,36,30.10,18.02,14,1,14,0.06
2013-5-7,66,52,41,49,44,39,93,75,43,29.77,16.58,13,1,13,0.00
2013-5-8,65,56,47,53,50,45,93,79,61,30.06,22.23,14,1,14,0.02
2013-5-9,74,59,43,56,50,41,94,74,48,30.06,26.23,12,0,12,0.01
2013-5-10,54,50,48,49,48,46,93,90,84,30.40,19.56,3,0,3,0.00
2013-5-12,60,53,41,50,41,32,92,67,42,30.14,27.24,11,2,18,0.00
2013-5-17,80,65,51,60,53,48,93,69,38,0.00,40.00,6,1,11,0.00
2013-5-18,70,62,58,62,58,51,95,85,72,31.12,16.67,7,1,10,0.20
2013-5-19,76,63,58,65,60,56,95,89,65,31.72,16.67,10,0,10,0.20
2013-5-20,83,67,55,66,59,53,95,77,51,31.72,31.67,8,0,8,0.00
2013-5-21,83,66,56,66,60,54,95,82,52,31.67,30.57,10,1,10,0.42
2013-5-22,78,65,55,68,60,53,95,85,60,30.57,30.57,17,1,17,0.60
2013-5-23,76,66,58,63,57,52,95,76,49,32.41,30.57,19,1,19,0.05
2013-5-24,65,57,44,54,45,37,89,65,38,32.39,31.30,17,2,17,0.00
2013-5-25,75,55,37,46,39,34,93,61,28,32.39,22.38,11,1,11,0.00
2013-5-26,72,57,45,52,46,36,88,68,42,31.55,22.38,10,1,10,0.03
2013-5-27,80,64,45,59,52,43,94,69,45,31.55,21.98,16,2,16,0.00
2013-5-28,82,68,55,59,56,52,93,67,40,24.44,24.44,12,1,12,0.00
2013-5-29,83,69,57,64,56,52,90,66,40,24.44,24.44,8,1,8,0.00
2013-5-30,83,67,52,63,56,50,94,70,37,24.44,24.44,10,1,10,0.00
2013-5-31,81,68,56,61,57,54,92,70,45,24.44,24.44,13,1,13,0.00
2013-6-1,82,71,62,62,60,54,89,69,42,24.44,24.44,15,2,15,0.01
2013-6-2,70,66,62,66,62,60,94,89,81,30.48,24.44,7,0,7,0.49
2013-6-3,77,64,59,65,60,57,98,88,58,30.48,30.48,9,0,9,0.00
2013-6-4,80,66,54,65,58,52,95,77,50,31.30,30.48,8,0,8,0.00
2013-6-5,80,68,56,66,60,54,95,79,53,32.23,16.07,12,1,12,0.14
2013-6-6,78,66,59,66,62,57,95,86,62,16.07,16.07,11,1,11,0.09
2013-6-7,81,67,60,68,63,58,95,88,52,31.30,16.07,7,0,7,0.70
2013-6-8,79,68,59,62,59,56,95,76,46,31.30,31.30,15,1,15,0.15
2013-6-9,77,66,58,71,62,56,95,87,65,31.30,31.30,8,0,8,0.45
2013-6-10,75,67,62,63,60,56,95,80,54,32.08,31.30,16,1,16,0.55
2013-6-11,82,70,61,65,61,55,95,74,44,32.06,31.83,14,1,14,0.06
2013-6-12,88,68,58,72,62,56,95,81,54,32.06,17.32,10,0,10,0.01
2013-6-13,83,72,64,67,64,62,94,77,55,31.82,17.32,17,2,17,0.01
2013-6-14,76,66,55,62,55,50,94,70,47,31.82,31.42,13,1,13,0.01
2013-6-15,81,66,49,62,55,47,94,72,47,31.42,31.42,13,1,13,0.00
2013-6-16,82,70,56,63,59,54,94,70,46,31.42,31.42,9,1,11,0.01
2013-6-17,79,70,65,67,64,62,93,81,63,31.42,17.50,9,1,9,0.00
2013-6-18,76,67,62,67,63,59,93,87,68,17.50,17.50,16,1,16,0.01
2013-6-19,80,67,56,64,59,55,95,78,51,32.11,17.50,6,0,6,0.00
2013-6-20,79,66,55,64,59,52,94,80,58,32.11,32.11,10,0,10,0.01
2013-6-21,81,66,56,64,59,54,94,80,49,32.11,32.11,9,0,9,0.00
2013-6-22,82,67,53,62,57,51,95,72,45,32.11,32.11,8,0,8,0.00
2013-6-23,79,66,53,66,60,51,94,81,56,32.11,32.11,10,0,10,0.07
2013-6-24,84,71,60,68,63,58,95,78,50,32.48,32.08,14,1,14,0.02
2013-6-25,82,70,60,68,64,59,95,81,54,32.08,32.08,12,1,12,0.45
2013-6-26,83,70,61,70,65,59,96,83,55,32.08,32.08,14,0,14,0.43
2013-6-27,83,73,63,70,66,61,94,79,60,32.08,32.08,11,2,13,0.21
2013-6-28,84,72,63,67,64,60,94,78,54,19.02,19.02,7,1,8,0.01
2013-6-29,82,70,59,63,58,54,91,68,41,19.02,19.02,12,1,12,0.00
2013-6-30,82,64,54,63,57,52,94,79,46,19.02,19.02,13,1,13,0.00
2013-7-1,81,68,61,66,62,58,96,82,46,32.11,19.02,11,0,11,0.00
2013-7-2,82,66,61,68,61,59,96,87,50,32.11,30.49,13,0,13,0.00
2013-7-3,68,64,61,66,62,60,95,91,83,31.55,30.49,4,0,4,0.65
2013-7-4,72,63,61,69,61,59,96,95,88,31.55,31.55,4,0,4,1.32
2013-7-5,80,69,64,66,64,61,96,85,61,31.55,31.02,10,0,10,0.25
2013-7-6,80,70,64,68,65,62,96,84,59,31.02,31.02,11,0,11,0.55
2013-7-7,76,69,66,70,66,64,96,89,78,31.02,31.02,7,0,7,0.48
2013-7-8,83,72,65,70,66,63,96,83,59,32.29,31.02,6,0,6,0.00
2013-7-9,85,72,62,70,65,61,96,82,52,32.29,32.29,9,1,9,0.14
2013-7-10,85,70,66,73,66,64,96,89,54,32.29,32.29,6,0,10,0.55
2013-7-11,78,70,65,70,66,63,96,88,72,32.29,32.29,5,0,5,0.01
2013-7-12,82,70,62,67,64,60,95,81,58,32.29,32.29,10,1,10,0.08
2013-7-13,75,64,61,66,61,59,95,91,69,32.29,32.29,7,0,7,0.07
2013-7-14,73,68,64,68,65,62,95,90,72,32.29,32.29,16,0,16,0.21
2013-7-15,81,70,62,69,64,61,95,83,62,32.29,32.29,7,0,7,0.01
2013-7-16,88,74,62,70,66,61,95,78,47,32.29,32.29,8,0,8,0.00
2013-7-17,86,72,63,71,66,61,96,82,56,32.29,32.29,13,0,14,0.08
2013-7-18,88,69,62,73,64,60,95,87,53,32.29,32.29,5,0,8,0.04
2013-7-19,88,72,63,73,66,61,96,82,51,32.29,25.09,9,0,9,0.58
2013-7-20,81,70,65,72,66,63,96,89,66,0.00,40.00,8,0,8,0.85
2013-7-21,83,69,64,72,66,62,96,89,60,25.09,16.97,12,0,12,0.54
2013-7-22,81,70,62,68,64,61,96,83,60,31.41,16.97,17,1,17,0.15
2013-7-23,81,74,62,70,65,60,95,75,56,31.41,31.41,11,1,11,0.63
2013-7-24,81,70,62,70,64,60,96,85,63,31.41,30.96,9,0,9,0.08
2013-7-25,77,64,60,66,61,59,96,91,64,30.96,30.96,7,0,7,0.00
2013-7-26,72,68,65,62,61,60,88,80,67,30.96,30.96,3,0,4,0.00
2013-7-27,78,69,63,66,63,61,95,83,61,30.96,30.96,9,0,9,0.66
2013-7-28,80,69,61,67,61,57,96,78,48,30.96,30.96,10,1,11,0.04
2013-7-29,82,66,55,62,58,53,95,77,47,31.70,17.06,9,0,9,0.00
2013-7-30,82,67,54,67,60,52,95,80,52,31.70,31.70,5,0,7,0.00
2013-7-31,73,67,63,68,64,61,95,90,76,31.70,31.70,7,0,8,0.13
2013-8-1,78,69,63,68,64,60,96,85,66,18.18,18.18,5,0,7,0.00
2013-8-2,84,70,59,68,62,55,95,78,38,18.34,18.18,11,1,11,0.00
2013-8-3,80,70,62,68,64,60,96,82,57,18.34,18.34,9,0,9,0.00
2013-8-4,79,69,61,68,63,59,95,82,63,21.78,21.78,5,0,9,0.00
2013-8-5,82,68,56,64,60,54,95,77,48,21.78,21.78,15,1,15,0.00
2013-8-6,83,70,63,70,64,57,94,82,59,21.78,16.86,10,0,10,0.06
2013-8-7,75,69,65,70,66,63,95,91,79,21.94,16.86,7,0,7,0.95
2013-8-8,83,72,64,72,67,62,96,86,58,21.94,21.94,12,1,12,0.03
2013-8-9,85,74,67,72,68,64,93,81,57,21.94,16.45,12,1,12,0.03
2013-8-10,82,73,66,72,68,64,95,83,63,27.93,16.45,10,1,10,0.03
2013-8-11,85,72,64,71,66,62,95,84,60,27.93,27.93,12,1,12,0.02
2013-8-12,85,72,64,71,66,62,96,84,59,27.93,24.94,12,1,12,0.00
2013-8-13,81,70,64,69,66,62,94,86,64,24.94,24.94,23,1,23,0.24
2013-8-14,75,66,60,62,60,56,96,82,57,26.33,23.83,9,0,9,0.01
2013-8-15,74,61,56,62,57,54,95,85,63,25.66,19.35,9,0,9,0.00
2013-8-16,74,64,56,59,56,53,92,78,58,26.35,19.35,9,1,9,0.00
2013-8-17,64,58,56,56,55,53,92,88,71,24.98,24.98,5,0,5,0.00
2013-8-18,75,65,60,66,62,58,95,88,67,28.79,28.79,7,0,12,0.13
2013-8-19,73,65,61,67,62,60,96,92,77,28.79,18.31,7,0,7,1.65
2013-8-20,77,68,61,70,64,60,96,90,71,30.09,18.31,6,0,6,0.05
2013-8-21,76,67,61,67,63,59,96,88,68,30.09,30.09,12,0,12,0.01
2013-8-22,82,69,59,69,63,58,96,83,59,30.09,30.09,9,0,9,0.00
2013-8-23,84,68,59,68,62,58,98,83,52,31.77,21.44,13,0,13,0.00
2013-8-24,79,67,58,66,60,56,96,81,55,31.77,27.67,8,0,8,0.00
2013-8-25,78,63,50,61,56,49,95,79,50,31.79,27.67,9,0,9,0.00
2013-8-26,79,64,54,63,57,52,96,81,55,31.79,31.79,9,0,9,0.00
2013-8-27,80,63,53,68,58,51,95,85,61,31.79,26.78,6,0,8,0.00
2013-8-28,84,69,59,70,64,57,95,84,58,29.08,17.28,4,0,5,0.00
2013-8-29,85,70,62,72,65,60,96,86,60,30.87,30.87,7,0,7,0.00
2013-8-30,86,73,66,72,67,64,95,82,53,25.24,18.25,14,0,14,0.00
2013-8-31,82,69,62,72,65,60,96,88,65,32.40,25.24,18,0,18,0.34
2013-9-1,83,70,63,70,65,62,96,85,60,0.00,40.00,9,1,11,0.22
2013-9-2,81,69,62,70,65,61,96,87,62,18.17,18.17,5,0,6,0.07
2013-9-3,80,68,61,68,63,59,95,83,60,0.00,40.00,7,1,7,0.16
2013-9-4,84,68,58,68,61,56,96,82,45,31.68,20.69,11,0,11,0.00
2013-9-5,82,67,58,66,60,51,98,81,34,31.69,29.02,5,0,8,0.00
2013-9-6,82,65,51,66,58,50,95,80,50,30.11,29.88,7,0,7,0.00
2013-9-7,81,66,56,66,60,55,96,83,57,32.49,23.39,9,0,9,0.00
2013-9-8,78,66,55,67,61,53,96,84,62,29.74,27.09,4,0,5,0.00
2013-9-9,83,67,58,68,62,56,96,84,55,31.80,17.49,6,0,6,0.00
2013-9-10,85,68,57,69,62,55,96,82,55,0.00,40.00,5,0,7,0.00
2013-9-11,83,68,56,68,62,54,94,82,57,30.46,22.65,8,0,8,0.00
2013-9-12,77,66,60,68,63,58,96,90,67,30.46,18.52,7,0,7,0.11
2013-9-13,75,63,52,62,57,49,96,81,55,30.77,18.52,13,1,13,0.04
2013-9-14,75,58,45,58,51,43,95,81,53,30.81,30.77,3,0,5,0.00
2013-9-15,76,60,46,60,53,44,95,81,55,32.39,17.93,12,1,12,0.00
2013-9-16,78,63,53,64,57,51,96,83,56,17.84,17.84,7,1,8,0.00
2013-9-17,71,63,60,60,57,55,93,82,66,17.84,17.84,4,0,5,0.00
2013-9-18,67,61,56,59,56,52,93,84,70,17.84,17.84,7,0,7,0.00
2013-9-19,77,63,54,67,58,52,95,86,63,17.84,17.84,8,0,8,0.04
2013-9-20,80,66,56,66,60,54,96,83,56,32.35,28.42,8,0,8,0.01
2013-9-21,68,64,57,63,60,56,95,87,77,20.51,20.51,6,1,7,1.17
2013-9-22,72,59,51,57,53,48,95,82,55,24.52,20.51,8,0,8,0.00
2013-9-23,76,58,47,61,53,46,96,83,52,30.18,30.18,5,0,9,0.00
2013-9-24,76,60,47,63,55,46,96,84,60,30.18,30.18,8,0,8,0.00
2013-9-25,63,60,57,61,58,55,95,93,88,30.18,18.36,4,0,4,1.47
2013-9-26,72,61,54,61,56,52,96,87,61,31.46,18.36,10,0,10,0.04
2013-9-27,74,60,52,59,54,51,95,83,51,29.48,18.50,5,0,6,0.00
2013-9-28,71,57,46,58,52,45,95,84,57,23.16,18.50,9,0,9,0.00
2013-9-29,71,58,52,58,53,50,94,83,54,17.55,17.55,6,0,9,0.00
2013-9-30,72,59,48,59,53,47,95,84,55,31.12,28.62,4,0,6,0.00
2013-10-1,75,59,50,61,53,48,96,84,51,31.12,30.02,12,0,12,0.00
2013-10-2,77,60,50,62,55,49,96,84,54,31.48,31.48,5,0,7,0.00
2013-10-3,78,63,54,64,57,52,95,83,55,31.48,30.28,5,0,8,0.00
2013-10-4,79,63,53,66,58,51,96,85,54,30.28,17.09,6,0,7,0.00
2013-10-5,83,64,53,66,58,52,96,83,50,17.09,17.09,8,0,8,0.00
2013-10-6,77,64,52,64,57,51,96,80,54,30.42,30.42,6,1,9,0.02
2013-10-7,64,57,46,60,54,44,95,89,64,30.42,30.42,9,0,9,1.10
2013-10-8,70,53,43,54,47,41,96,84,55,30.42,27.92,7,0,8,0.01
2013-10-9,72,53,44,57,48,42,95,87,55,31.38,18.92,6,0,7,0.00
2013-10-10,69,55,46,56,49,45,100,83,51,31.02,18.92,10,1,10,0.00
2013-10-11,72,55,44,57,48,42,96,81,42,31.02,31.02,14,1,14,0.00
2013-10-12,74,57,46,59,52,44,95,84,59,31.02,31.02,9,0,9,0.00
2013-10-13,68,60,55,60,56,53,95,89,72,31.02,16.24,5,0,6,0.01
2013-10-14,68,60,55,58,56,52,95,86,69,17.08,17.08,4,0,4,0.00
2013-10-15,71,59,52,59,55,51,95,85,65,26.68,26.68,5,0,6,0.00
2013-10-16,67,58,50,56,54,49,95,85,66,26.68,26.68,13,1,13,0.00
2013-10-17,68,61,54,62,57,51,92,88,75,26.68,26.68,10,1,10,0.06
2013-10-18,70,58,51,54,50,44,90,75,49,31.25,18.97,4,0,7,0.00
2013-10-19,62,60,58,53,47,39,72,63,43,18.97,18.97,8,1,8,0.00
2013-10-20,69,59,41,43,41,31,89,53,26,18.97,18.97,8,0,8,0.00
2013-10-21,66,60,40,50,44,23,95,55,43,18.97,18.97,14,1,14,0.00
2013-10-22,67,62,55,48,46,41,76,58,47,30.11,18.97,14,1,14,0.00
2013-10-23,61,53,45,47,37,27,67,54,42,30.11,30.11,18,4,18,0.00
2013-10-24,52,47,35,36,32,28,86,56,51,30.50,30.11,15,5,16,0.00
2013-10-25,49,44,31,34,29,22,74,54,45,30.50,24.67,15,2,15,0.00
2013-10-26,56,47,26,30,27,11,92,46,33,31.06,24.67,18,2,18,0.00
2013-10-27,62,56,47,49,40,29,78,56,38,31.06,31.06,8,1,9,0.00
2013-10-28,61,58,58,51,49,48,77,70,63,31.06,19.14,11,0,11,0.00
2013-10-29,67,61,54,50,48,44,86,62,48,29.15,19.14,11,1,11,0.00
2013-10-30,71,65,61,56,50,46,69,58,54,29.40,29.15,11,1,11,0.00
2013-10-31,68,67,64,54,54,51,68,63,61,29.40,29.40,12,1,16,0.00
2013-11-1,73,67,60,54,46,38,77,50,31,29.40,29.40,17,2,17,0.00
2013-11-2,68,58,42,43,39,14,93,51,32,29.40,19.23,15,2,15,0.00
2013-11-3,56,52,42,39,36,32,76,57,45,32.39,29.61,6,1,8,0.00
2013-11-4,58,52,34,38,35,17,93,52,44,32.39,32.39,8,1,8,0.00
2013-11-5,64,55,38,38,33,30,83,45,33,31.39,31.39,5,1,7,0.00
2013-11-6,65,60,57,52,42,30,75,53,35,31.39,25.02,12,1,12,0.00
2013-11-7,62,54,44,52,43,33,89,66,62,25.02,25.02,13,1,13,0.00
2013-11-8,51,46,35,33,25,20,72,47,30,31.74,19.52,7,1,11,0.00
2013-11-9,54,50,30,31,24,20,81,37,34,32.01,19.51,15,2,15,0.00
2013-11-10,63,56,35,39,31,26,77,39,29,30.59,19.51,14,2,14,0.00
2013-11-11,66,58,30,34,32,6,86,39,25,30.76,19.62,7,1,7,0.00
2013-11-12,60,45,32,36,30,24,78,59,37,24.29,19.52,22,2,22,0.00
2013-11-13,44,36,20,25,19,9,82,53,30,19.52,19.52,11,2,11,0.00
2013-11-14,60,31,0,23,12,0,88,24,19,30.33,19.52,13,1,13,0.00
2013-11-15,56,56,56,17,17,17,22,22,22,30.65,25.14,3,3,3,0.00
2013-11-17,64,55,0,56,48,-7,77,67,71,0.00,40.00,9,1,15,0.00
2013-11-18,63,56,39,56,44,30,92,65,32,0.00,40.00,9,1,14,0.00
2013-11-19,51,40,33,31,27,18,76,60,28,29.96,29.96,7,1,8,0.00
2013-11-20,52,37,26,31,27,23,92,70,41,32.13,28.20,9,1,9,0.00
2013-11-21,57,45,36,50,40,29,94,82,67,28.34,28.34,5,0,5,0.02
2013-11-22,66,56,45,56,52,43,96,87,71,28.34,28.18,12,2,12,0.03
2013-11-23,54,43,29,52,38,16,92,82,45,30.00,28.17,9,1,9,0.00
2013-11-24,34,24,18,22,12,4,81,60,30,28.31,28.31,14,2,14,0.00
2013-11-25,45,29,18,27,16,12,82,61,31,28.32,28.31,6,0,6,0.01
2013-11-26,42,39,32,41,37,26,95,93,81,28.32,28.32,5,0,5,2.30
2013-11-27,41,28,19,39,23,13,94,82,68,28.32,16.56,19,2,20,0.19
2013-11-28,48,27,13,28,18,10,92,72,32,16.56,16.56,7,0,7,0.05
2013-11-29,52,32,20,32,23,17,92,74,37,16.56,16.56,7,0,7,0.00
2013-11-30,52,32,22,31,25,20,92,76,42,31.39,27.71,6,0,7,0.00
2013-12-1,57,38,27,38,29,24,92,72,33,28.49,28.01,13,1,13,0.00
2013-12-2,53,42,29,42,36,26,90,80,64,28.33,28.33,5,1,7,0.00
2013-12-3,56,48,42,48,44,40,94,85,73,28.33,28.33,8,0,8,0.01
2013-12-4,66,54,44,55,48,42,96,81,58,28.33,28.33,16,1,16,0.00
2013-12-5,69,61,57,60,56,52,95,84,68,28.33,28.33,12,1,12,0.45
2013-12-6,71,64,51,61,58,48,95,81,63,28.33,28.33,23,3,23,0.97
2013-12-7,51,44,39,49,40,36,94,87,74,31.61,28.33,6,1,7,0.01
2013-12-8,54,43,38,52,41,36,95,91,85,31.61,16.04,17,2,17,0.82
2013-12-9,60,53,45,53,50,42,92,89,77,30.25,16.04,16,2,16,0.72
2013-12-10,49,38,24,47,33,20,95,84,61,23.79,23.34,9,1,14,0.54
2013-12-11,49,30,18,26,19,16,91,70,27,32.07,30.37,7,0,10,0.00
2013-12-12,38,27,20,21,16,10,88,67,33,32.07,27.75,7,1,8,0.00
2013-12-13,50,32,17,28,20,14,88,66,34,28.77,28.77,5,0,5,0.00
2013-12-14,50,43,35,47,37,21,94,80,46,31.78,28.25,8,1,8,0.64
2013-12-15,50,35,25,44,30,23,91,83,71,28.25,25.51,8,2,10,0.01
2013-12-16,50,36,22,30,25,19,91,69,38,31.98,17.16,15,1,15,0.01
2013-12-17,55,42,30,34,29,22,84,61,43,31.98,20.08,25,3,25,0.00
2013-12-18,47,33,23,22,18,12,81,57,26,30.09,18.20,9,1,10,0.00
2013-12-19,62,43,23,31,24,18,85,53,29,32.14,18.20,14,2,14,0.00
2013-12-20,60,52,43,48,32,21,77,48,34,30.26,21.78,16,2,16,0.00
2013-12-21,66,59,54,59,53,45,91,81,69,30.15,29.87,22,2,22,0.11
2013-12-22,67,59,52,59,54,50,94,85,65,31.51,29.87,28,3,28,3.21
2013-12-23,52,44,33,50,41,28,95,89,81,30.10,30.10,9,1,9,0.08
2013-12-24,33,27,17,28,22,14,87,79,66,30.10,27.88,11,1,11,0.00
2013-12-25,43,23,14,24,16,11,92,78,43,27.88,27.88,5,0,8,0.00
2013-12-26,47,27,21,28,21,18,92,78,43,30.31,23.50,8,0,8,0.00
2013-12-27,50,31,20,30,23,18,91,76,38,30.37,16.51,7,0,7,0.00
2013-12-28,43,32,20,39,28,17,94,86,60,30.38,21.24,5,0,5,0.43
2013-12-29,55,43,32,47,39,30,95,87,64,32.31,29.17,12,1,12,0.23
2013-12-30,46,38,32,37,34,29,94,85,64,31.00,21.61,9,1,14,0.00
2013-12-31,39,31,24,29,24,18,99,76,48,32.25,20.62,9,1,9,0.00
2014-1-1,46,33,22,28,22,19,90,66,37,32.25,20.49,13,1,13,0.00
2014-1-2,46,38,18,43,32,9,91,80,60,31.91,28.23,16,3,19,0.26